首页
METAR-TAF:

METAR-TAF

机场 :

贝鲁特, 黎巴嫩

纬度: 33-49N, 经度: 035-29E, 海拔: 29米

当前天气观测

该预报发布于21分钟前的22:00 UTC
风速2节,风向多变
温度 20°C
湿度 73%
气压 1010 hPa
能見度: 6000
阴天层高于7000英尺

METAR: OLBA 252200Z VRB02KT 6000 OVC070 20/15 Q1010 NOSIG

时间: 01:21 (22:21 UTC)

预报

该预报发布于6小时和21分钟前的16:00 UTC
预报有效从25日的 18点(UTC)到 26日的 24点(UTC)
风速8节,风向
能見度: 7000
散云层高于10000英尺
散云层高于15000英尺
短暂存在
从 25日的 18点(UTC)到 26日的 06点(UTC)
能見度: 4000
小雨
成为
从 26日的 03点(UTC)到 26日的 06点(UTC)
风速15节,风向南转西南
散云层高于2300英尺
多云层高于7000英尺
成为
从 26日的 09点(UTC)到 26日的 12点(UTC)
多云层高于2300英尺
短暂存在
从 26日的 09点(UTC)到 26日的 24点(UTC)
能見度: 4000
少量云层高于2000英尺, 积雨云.
多云层高于2300英尺
雷暴, 雨

TAF: OLBA 251600Z 2518/2624 09008KT 7000 SCT100 SCT150 TEMPO 2518/2606 4000 -RA BECMG 2603/2606 20015KT SCT023 BKN070 BECMG 2609/2612 BKN023 TEMPO 2609/2624 4000 TSRA FEW020CB BKN023

超过4000个机场的气象观测和天气预报(METAR&TAF报告)。

可查询的气象台以黄色和红色小点在地图上表示。

将鼠标移到小点上方,可查看气象台名称。

然后点击查看天气观测和预报。

如需切换地图:点击带黑十字的绿色按钮放大地图;点击带横线的绿色按钮缩小地图;或者点击绿色箭头查看邻近地区的地图。


METAR-TAF: